createdAt,value
2023-04-19T00:02:25.690Z,6.07
2023-04-19T00:04:53.589Z,9.32
2023-04-19T00:07:20.991Z,6.13
2023-04-19T00:09:48.290Z,6.85
2023-04-19T00:12:15.535Z,5.70
2023-04-19T00:14:42.816Z,7.25
2023-04-19T00:17:11.561Z,7.55
2023-04-19T00:19:39.172Z,6.10
2023-04-19T00:22:06.460Z,5.85
2023-04-19T00:24:33.656Z,5.45
2023-04-19T00:27:01.889Z,5.63
2023-04-19T00:29:29.203Z,6.82
2023-04-19T00:31:56.415Z,6.80
2023-04-19T00:34:24.554Z,8.32
2023-04-19T00:36:51.924Z,7.60
2023-04-19T00:39:19.302Z,6.65
2023-04-19T00:41:46.493Z,5.78
2023-04-19T00:44:14.093Z,6.13
2023-04-19T00:46:43.384Z,6.40
2023-04-19T00:49:10.787Z,6.80
2023-04-19T00:51:38.368Z,6.88
2023-04-19T00:54:06.551Z,7.95
2023-04-19T00:56:35.712Z,9.18
2023-04-19T00:59:03.035Z,8.15
2023-04-19T01:01:31.606Z,6.70
2023-04-19T01:03:59.131Z,6.18
2023-04-19T01:06:30.018Z,6.68
2023-04-19T01:08:57.569Z,6.68
2023-04-19T01:11:25.558Z,7.13
2023-04-19T01:13:52.937Z,6.68
2023-04-19T01:16:20.376Z,7.20
2023-04-19T01:18:50.044Z,6.30
2023-04-19T01:21:17.348Z,8.65
2023-04-19T01:23:45.397Z,7.13
2023-04-19T01:26:12.712Z,7.40
2023-04-19T01:28:39.981Z,7.50
2023-04-19T01:31:07.331Z,11.35
2023-04-19T01:33:34.629Z,8.95
2023-04-19T01:36:01.889Z,6.82
2023-04-19T01:38:29.160Z,6.88
2023-04-19T01:40:57.377Z,8.55
2023-04-19T01:43:25.309Z,8.85
2023-04-19T01:45:52.723Z,8.35
2023-04-19T01:48:20.433Z,7.90
2023-04-19T01:50:47.731Z,9.35
2023-04-19T01:53:15.073Z,7.05
2023-04-19T01:55:42.688Z,10.20
2023-04-19T01:58:09.975Z,8.73
2023-04-19T02:00:37.291Z,8.85
2023-04-19T02:03:05.254Z,8.75
2023-04-19T02:05:32.749Z,9.02
2023-04-19T02:08:01.562Z,8.63
2023-04-19T02:10:31.434Z,10.77
2023-04-19T02:12:58.791Z,8.88
2023-04-19T02:15:26.194Z,9.40
2023-04-19T02:17:54.037Z,9.13
2023-04-19T02:20:21.376Z,7.18
2023-04-19T02:22:49.600Z,8.70
2023-04-19T02:25:16.923Z,9.55
2023-04-19T02:27:46.606Z,8.02
2023-04-19T02:30:14.267Z,8.80
2023-04-19T02:32:41.559Z,8.18
2023-04-19T02:35:09.039Z,9.10
2023-04-19T02:37:36.237Z,8.98
2023-04-19T02:40:05.441Z,7.05
2023-04-19T02:42:32.684Z,9.25
2023-04-19T02:45:00.083Z,8.52
2023-04-19T02:47:27.471Z,8.65
2023-04-19T02:49:54.662Z,7.32
2023-04-19T02:52:22.392Z,11.57
2023-04-19T02:54:49.675Z,13.98
2023-04-19T02:57:16.923Z,13.10
2023-04-19T02:59:45.095Z,11.88
2023-04-19T03:02:12.457Z,13.82
2023-04-19T03:04:40.057Z,12.18
2023-04-19T03:07:08.999Z,13.00
2023-04-19T03:09:36.634Z,9.82
2023-04-19T03:12:05.258Z,10.25
2023-04-19T03:14:33.990Z,13.93
2023-04-19T03:17:01.262Z,12.65
2023-04-19T03:19:28.867Z,12.98
2023-04-19T03:21:56.328Z,11.52
2023-04-19T03:24:30.864Z,11.88
2023-04-19T03:27:03.339Z,10.80
2023-04-19T03:29:31.757Z,12.25
2023-04-19T03:32:02.925Z,13.50
2023-04-19T03:34:30.775Z,10.20
2023-04-19T03:36:58.121Z,11.60
2023-04-19T03:39:25.466Z,15.35
2023-04-19T03:42:01.319Z,12.10
2023-04-19T03:44:37.579Z,10.70
2023-04-19T03:47:07.228Z,13.48
2023-04-19T03:49:40.948Z,11.73
2023-04-19T03:52:08.208Z,11.10
2023-04-19T03:54:35.684Z,12.10
2023-04-19T03:57:07.606Z,9.13
2023-04-19T03:59:38.731Z,11.48
2023-04-19T04:02:07.013Z,11.18
2023-04-19T04:04:34.844Z,14.18
2023-04-19T04:07:02.422Z,11.65
2023-04-19T04:09:29.831Z,11.40
2023-04-19T04:11:57.239Z,10.90
2023-04-19T04:14:25.504Z,12.77
2023-04-19T04:16:53.096Z,10.02
2023-04-19T04:19:22.056Z,13.13
2023-04-19T04:21:50.315Z,10.20
2023-04-19T04:24:20.093Z,9.07
2023-04-19T04:27:10.047Z,8.40
2023-04-19T04:29:41.169Z,13.77
2023-04-19T04:32:10.524Z,11.25
2023-04-19T04:34:42.621Z,11.68
2023-04-19T04:37:13.866Z,11.80
2023-04-19T04:39:42.092Z,10.25
2023-04-19T04:42:10.970Z,13.20
2023-04-19T04:44:39.002Z,11.35
2023-04-19T04:47:07.928Z,10.10
2023-04-19T04:49:48.070Z,12.60
2023-04-19T04:52:17.374Z,10.52
2023-04-19T04:54:57.314Z,9.90
2023-04-19T04:57:30.094Z,9.40
2023-04-19T04:59:58.181Z,9.18
2023-04-19T05:02:29.211Z,7.55
2023-04-19T05:04:56.657Z,11.23
2023-04-19T05:07:24.007Z,8.65
2023-04-19T05:09:51.884Z,10.82
2023-04-19T05:12:24.472Z,12.80
2023-04-19T05:14:51.917Z,12.20
2023-04-19T05:17:19.212Z,11.52
2023-04-19T05:19:46.892Z,12.30
2023-04-19T05:22:14.369Z,11.85
2023-04-19T05:24:42.458Z,11.88
2023-04-19T05:27:10.373Z,12.00
2023-04-19T05:29:37.620Z,12.50
2023-04-19T05:32:06.457Z,13.90
2023-04-19T05:34:37.293Z,11.45
2023-04-19T05:37:05.769Z,10.75
2023-04-19T05:39:33.329Z,10.85
2023-04-19T05:42:01.729Z,8.48
2023-04-19T05:44:29.073Z,11.95
2023-04-19T05:46:56.397Z,11.50
2023-04-19T05:49:49.677Z,12.10
2023-04-19T05:52:31.273Z,11.57
2023-04-19T05:55:00.318Z,11.15
2023-04-19T05:57:27.980Z,10.73
2023-04-19T05:59:55.434Z,13.00
2023-04-19T06:02:26.525Z,11.25
2023-04-19T06:04:54.154Z,14.18
2023-04-19T06:07:30.871Z,15.45
2023-04-19T06:10:00.487Z,9.73
2023-04-19T06:12:28.022Z,10.75
2023-04-19T06:14:55.291Z,13.43
2023-04-19T06:17:25.028Z,14.15
2023-04-19T06:19:52.940Z,10.30
2023-04-19T06:22:20.788Z,10.38
2023-04-19T06:24:48.282Z,12.10
2023-04-19T06:27:16.956Z,12.43
2023-04-19T06:29:44.201Z,12.95
2023-04-19T06:32:11.787Z,10.25
2023-04-19T06:34:39.050Z,9.98
2023-04-19T06:37:06.330Z,10.30
2023-04-19T06:39:33.682Z,9.48
2023-04-19T06:42:02.342Z,10.48
2023-04-19T06:44:29.750Z,10.05
2023-04-19T06:46:56.938Z,8.10
2023-04-19T06:49:24.452Z,9.90
2023-04-19T06:51:51.759Z,10.45
2023-04-19T06:54:19.430Z,8.70
2023-04-19T06:56:48.803Z,7.15
2023-04-19T06:59:19.145Z,8.57
2023-04-19T07:01:47.668Z,10.20
2023-04-19T07:04:16.015Z,9.15
2023-04-19T07:06:43.568Z,6.97
2023-04-19T07:09:10.845Z,5.90
2023-04-19T07:11:38.070Z,6.38
2023-04-19T07:14:05.379Z,7.65
2023-04-19T07:16:33.540Z,6.68
2023-04-19T07:19:01.127Z,9.90
2023-04-19T07:21:32.871Z,6.72
2023-04-19T07:24:00.221Z,8.15
2023-04-19T07:26:27.516Z,7.97
2023-04-19T07:28:54.683Z,13.40
2023-04-19T07:31:22.022Z,11.93
2023-04-19T07:33:49.359Z,8.80
2023-04-19T07:36:16.802Z,6.35
2023-04-19T07:38:44.212Z,7.22
2023-04-19T07:41:11.578Z,7.13
2023-04-19T07:43:39.409Z,7.03
2023-04-19T07:46:16.220Z,5.53
2023-04-19T07:48:43.761Z,8.93
2023-04-19T07:51:16.754Z,8.07
2023-04-19T07:53:44.459Z,5.10
2023-04-19T07:56:13.291Z,5.22
2023-04-19T07:58:41.491Z,6.85
2023-04-19T08:01:09.110Z,5.40
2023-04-19T08:03:37.751Z,5.22
2023-04-19T08:06:08.824Z,6.93
2023-04-19T08:08:37.198Z,4.88
2023-04-19T08:11:05.179Z,6.70
2023-04-19T08:13:32.473Z,7.78
2023-04-19T08:18:29.928Z,6.03
2023-04-19T08:20:58.033Z,5.85
2023-04-19T08:23:31.774Z,6.88
2023-04-19T08:26:05.967Z,6.15
2023-04-19T08:28:33.340Z,8.68
2023-04-19T08:31:00.724Z,5.75
2023-04-19T08:33:32.038Z,5.93
2023-04-19T08:35:59.415Z,7.05
2023-04-19T08:38:26.722Z,6.93
2023-04-19T08:40:58.020Z,6.32
2023-04-19T08:43:28.686Z,6.30
2023-04-19T08:45:57.072Z,7.43
2023-04-19T08:48:25.572Z,5.97
2023-04-19T08:51:04.295Z,13.18
2023-04-19T08:53:34.922Z,6.40
2023-04-19T08:56:15.175Z,5.70
2023-04-19T09:04:02.610Z,5.93
2023-04-19T09:06:38.953Z,7.55
2023-04-19T09:11:50.790Z,7.32
2023-04-19T09:14:19.747Z,11.13
2023-04-19T09:16:47.030Z,8.65
2023-04-19T09:19:23.916Z,7.85
2023-04-19T09:21:54.757Z,6.40
2023-04-19T09:27:13.954Z,6.85
2023-04-19T09:29:41.176Z,9.65
2023-04-19T09:32:08.558Z,7.80
2023-04-19T09:34:35.844Z,4.95
2023-04-19T09:37:21.452Z,6.40
2023-04-19T09:40:00.286Z,6.45
2023-04-19T09:48:04.752Z,6.63
2023-04-19T09:50:33.888Z,8.40
2023-04-19T09:53:06.597Z,5.57
2023-04-19T09:55:52.495Z,3.53
2023-04-19T09:58:29.304Z,3.90
2023-04-19T10:01:13.459Z,6.10
2023-04-19T10:03:48.946Z,5.30
2023-04-19T10:08:53.452Z,4.13
2023-04-19T10:11:22.386Z,3.83
2023-04-19T10:13:53.843Z,6.13
2023-04-19T10:16:21.160Z,4.50
2023-04-19T10:18:52.866Z,4.07
2023-04-19T10:21:20.983Z,7.72
2023-04-19T10:23:48.537Z,6.72
2023-04-19T10:26:16.139Z,3.67
2023-04-19T10:28:43.526Z,6.38
2023-04-19T10:31:14.265Z,4.30
2023-04-19T10:33:42.280Z,6.10
2023-04-19T10:36:11.666Z,8.85
2023-04-19T10:38:57.100Z,4.03
2023-04-19T10:41:24.409Z,3.63
2023-04-19T10:43:58.077Z,7.18
2023-04-19T10:46:26.141Z,4.35
2023-04-19T10:48:58.769Z,6.05
2023-04-19T10:51:35.680Z,3.45
2023-04-19T10:54:04.677Z,5.10
2023-04-19T10:56:35.027Z,5.90
2023-04-19T10:59:08.442Z,2.97
2023-04-19T11:01:45.813Z,3.42
2023-04-19T11:04:29.954Z,2.85
2023-04-19T11:07:02.831Z,7.55
2023-04-19T11:09:39.279Z,6.68
2023-04-19T11:12:08.559Z,3.33
2023-04-19T11:14:46.626Z,4.43
2023-04-19T11:17:18.293Z,4.85
2023-04-19T11:19:52.895Z,9.63
2023-04-19T11:22:44.515Z,5.70
2023-04-19T11:25:19.483Z,6.22
2023-04-19T11:27:49.345Z,3.78
2023-04-19T11:30:31.119Z,2.35
2023-04-19T11:32:58.653Z,4.07
2023-04-19T11:35:27.629Z,8.93
2023-04-19T11:37:56.938Z,3.92
2023-04-19T11:40:26.280Z,8.23
2023-04-19T11:42:55.901Z,5.07
2023-04-19T11:45:34.391Z,4.78
2023-04-19T11:48:06.214Z,3.53
2023-04-19T11:50:40.785Z,6.40
2023-04-19T11:53:16.873Z,3.63
2023-04-19T11:55:48.625Z,3.60
2023-04-19T11:58:31.024Z,3.53
2023-04-19T12:01:07.231Z,5.50
2023-04-19T12:03:44.999Z,6.22
2023-04-19T12:06:17.833Z,4.45
2023-04-19T12:08:49.918Z,6.20
2023-04-19T12:11:19.292Z,10.18
2023-04-19T12:13:46.559Z,4.93
2023-04-19T12:16:14.186Z,4.18
2023-04-19T12:18:48.244Z,3.13
2023-04-19T12:21:27.175Z,2.70
2023-04-19T12:23:58.792Z,3.85
2023-04-19T12:26:29.811Z,3.28
2023-04-19T12:28:58.636Z,2.92
2023-04-19T12:31:27.008Z,4.97
2023-04-19T12:33:54.451Z,4.20
2023-04-19T12:36:22.366Z,7.60
2023-04-19T12:38:49.653Z,6.57
2023-04-19T12:41:16.934Z,2.35
2023-04-19T12:43:44.144Z,2.83
2023-04-19T12:46:11.569Z,6.15
2023-04-19T12:48:39.728Z,5.38
2023-04-19T12:51:07.057Z,3.80
2023-04-19T12:53:34.348Z,2.88
2023-04-19T12:56:01.700Z,3.25
2023-04-19T12:58:29.098Z,5.15
2023-04-19T13:00:56.515Z,2.00
2023-04-19T13:03:23.847Z,4.53
2023-04-19T13:05:51.192Z,2.83
2023-04-19T13:08:28.190Z,4.60
2023-04-19T13:11:01.190Z,4.28
2023-04-19T13:13:29.436Z,2.30
2023-04-19T13:15:56.694Z,4.80
2023-04-19T13:18:23.990Z,4.47
2023-04-19T13:20:51.227Z,2.10
2023-04-19T13:23:18.552Z,2.25
2023-04-19T13:25:46.169Z,4.75
2023-04-19T13:28:13.441Z,6.60
2023-04-19T13:30:41.042Z,4.82
2023-04-19T13:33:09.011Z,8.48
2023-04-19T13:35:36.637Z,7.30
2023-04-19T13:38:03.886Z,8.27
2023-04-19T13:40:31.281Z,3.95
2023-04-19T13:42:59.092Z,5.55
2023-04-19T13:45:26.702Z,4.70
2023-04-19T13:47:54.372Z,7.18
2023-04-19T13:50:21.672Z,3.03
2023-04-19T13:52:48.928Z,4.22
2023-04-19T13:55:16.299Z,5.03
2023-04-19T13:57:43.840Z,3.70
2023-04-19T14:00:11.473Z,5.95
2023-04-19T14:02:39.140Z,5.93
2023-04-19T14:05:07.104Z,2.80
2023-04-19T14:07:34.327Z,3.22
2023-04-19T14:10:01.774Z,5.47
2023-04-19T14:12:29.191Z,4.90
2023-04-19T14:14:56.492Z,6.20
2023-04-19T14:17:23.768Z,4.05
2023-04-19T14:19:51.167Z,3.00
2023-04-19T14:22:18.645Z,3.50
2023-04-19T14:24:46.256Z,5.18
2023-04-19T14:27:13.525Z,6.95
2023-04-19T14:29:40.769Z,11.20
2023-04-19T14:32:24.175Z,3.97
2023-04-19T14:34:54.826Z,3.65
2023-04-19T14:37:23.575Z,7.00
2023-04-19T14:39:51.094Z,7.95
2023-04-19T14:42:20.087Z,5.72
2023-04-19T14:44:51.347Z,2.63
2023-04-19T14:47:18.745Z,2.92
2023-04-19T14:49:46.179Z,4.63
2023-04-19T14:52:13.428Z,3.25
2023-04-19T14:54:40.922Z,10.85
2023-04-19T14:57:08.320Z,8.07
2023-04-19T14:59:35.708Z,8.20
2023-04-19T15:02:03.104Z,10.10
2023-04-19T15:04:30.671Z,4.40
2023-04-19T15:06:57.997Z,3.13
2023-04-19T15:09:26.851Z,2.42
2023-04-19T15:11:54.068Z,3.80
2023-04-19T15:14:21.250Z,3.00
2023-04-19T15:16:48.548Z,2.95
2023-04-19T15:19:16.525Z,4.82
2023-04-19T15:21:44.167Z,5.00
2023-04-19T15:24:11.846Z,2.97
2023-04-19T15:26:39.264Z,3.22
2023-04-19T15:29:06.529Z,4.07
2023-04-19T15:31:33.896Z,6.35
2023-04-19T15:34:04.456Z,4.32
2023-04-19T15:36:32.009Z,4.43
2023-04-19T15:38:59.762Z,7.85
2023-04-19T15:41:27.170Z,3.33
2023-04-19T15:43:54.521Z,3.38
2023-04-19T15:46:22.277Z,3.75
2023-04-19T15:48:50.629Z,6.90
2023-04-19T15:51:18.003Z,2.55
2023-04-19T15:53:45.345Z,8.98
2023-04-19T15:56:12.751Z,5.15
2023-04-19T15:58:40.083Z,5.15
2023-04-19T16:01:13.645Z,7.78
2023-04-19T16:03:41.724Z,6.03
2023-04-19T16:06:09.873Z,14.00
2023-04-19T16:08:37.148Z,10.63
2023-04-19T16:11:05.975Z,3.65
2023-04-19T16:13:33.314Z,5.28
2023-04-19T16:16:01.389Z,8.73
2023-04-19T16:18:28.833Z,6.43
2023-04-19T16:20:56.249Z,3.10
2023-04-19T16:23:24.425Z,4.18
2023-04-19T16:25:51.723Z,4.15
2023-04-19T16:28:20.023Z,5.03
2023-04-19T16:30:47.528Z,3.75
2023-04-19T16:33:15.877Z,3.50
2023-04-19T16:35:43.323Z,4.75
2023-04-19T16:38:10.833Z,4.00
2023-04-19T16:40:38.283Z,3.05
2023-04-19T16:43:06.655Z,4.78
2023-04-19T16:45:34.027Z,5.22
2023-04-19T16:48:01.388Z,3.75
2023-04-19T16:50:28.720Z,5.63
2023-04-19T16:52:56.008Z,4.25
2023-04-19T16:55:23.421Z,2.85
2023-04-19T16:57:51.199Z,3.83
2023-04-19T17:00:19.086Z,3.97
2023-04-19T17:02:46.661Z,3.20
2023-04-19T17:05:16.144Z,4.40
2023-04-19T17:07:43.935Z,3.75
2023-04-19T17:10:12.385Z,3.42
2023-04-19T17:12:39.790Z,6.53
2023-04-19T17:15:07.437Z,2.15
2023-04-19T17:17:34.678Z,3.53
2023-04-19T17:20:02.067Z,2.60
2023-04-19T17:22:29.796Z,3.50
2023-04-19T17:24:58.874Z,2.60
2023-04-19T17:27:26.178Z,3.03
2023-04-19T17:29:53.440Z,3.88
2023-04-19T17:32:20.778Z,4.72
2023-04-19T17:34:48.227Z,8.48
2023-04-19T17:37:15.546Z,4.55
2023-04-19T17:39:42.929Z,6.88
2023-04-19T17:42:10.176Z,3.67
2023-04-19T17:44:37.529Z,2.80
2023-04-19T17:47:04.898Z,3.20
2023-04-19T17:49:32.277Z,3.85
2023-04-19T17:51:59.552Z,10.20
2023-04-19T17:54:26.825Z,2.55
2023-04-19T17:56:54.666Z,5.82
2023-04-19T17:59:22.198Z,2.47
2023-04-19T18:01:49.421Z,4.15
2023-04-19T18:04:19.956Z,6.18
2023-04-19T18:06:47.605Z,3.83
2023-04-19T18:09:16.907Z,4.65
2023-04-19T18:11:44.453Z,7.03
2023-04-19T18:14:11.694Z,2.72
2023-04-19T18:16:38.897Z,5.55
2023-04-19T18:19:06.184Z,5.70
2023-04-19T18:21:33.636Z,4.10
2023-04-19T18:24:00.972Z,2.45
2023-04-19T18:26:42.109Z,3.42
2023-04-19T18:29:10.327Z,4.70
2023-04-19T18:31:37.876Z,5.32
2023-04-19T18:34:05.155Z,6.35
2023-04-19T18:36:32.647Z,7.50
2023-04-19T18:39:00.001Z,4.55
2023-04-19T18:41:27.320Z,4.25
2023-04-19T18:44:24.688Z,3.55
2023-04-19T18:46:41.975Z,5.50
2023-04-19T18:49:10.190Z,5.35
2023-04-19T18:51:38.384Z,7.57
2023-04-19T18:54:05.829Z,6.95
2023-04-19T18:57:10.829Z,5.10
2023-04-19T18:59:20.424Z,4.10
2023-04-19T19:01:48.454Z,3.20
2023-04-19T19:04:42.952Z,2.95
2023-04-19T19:07:27.363Z,3.15
2023-04-19T19:09:57.117Z,5.57
2023-04-19T19:12:25.542Z,3.60
2023-04-19T19:14:52.907Z,4.80
2023-04-19T19:17:20.259Z,5.68
2023-04-19T19:19:47.609Z,3.85
2023-04-19T19:22:25.787Z,9.38
2023-04-19T19:24:54.820Z,4.22
2023-04-19T19:27:22.166Z,2.75
2023-04-19T19:29:49.862Z,5.05
2023-04-19T19:32:17.234Z,3.17
2023-04-19T19:34:54.940Z,5.38
2023-04-19T19:37:27.047Z,3.60
2023-04-19T19:39:56.441Z,5.93
2023-04-19T19:42:25.039Z,3.17
2023-04-19T19:44:55.924Z,4.47
2023-04-19T19:47:24.434Z,5.18
2023-04-19T19:52:22.422Z,3.80
2023-04-19T19:54:49.760Z,5.05
2023-04-19T19:59:55.615Z,5.75
2023-04-19T20:02:24.836Z,3.65
2023-04-19T20:04:52.589Z,3.05
2023-04-19T20:09:52.522Z,5.50
2023-04-19T20:12:19.799Z,5.55
2023-04-19T20:14:47.084Z,3.55
2023-04-19T20:17:14.559Z,3.35
2023-04-19T20:19:44.759Z,3.60
2023-04-19T20:22:12.326Z,3.05
2023-04-19T20:24:40.386Z,3.20
2023-04-19T20:27:07.761Z,5.30
2023-04-19T20:29:35.113Z,4.57
2023-04-19T20:32:02.533Z,2.92
2023-04-19T20:34:29.933Z,5.57
2023-04-19T20:36:58.676Z,3.25
2023-04-19T20:39:26.679Z,3.28
2023-04-19T20:41:54.032Z,8.77
2023-04-19T20:44:22.659Z,11.80
2023-04-19T20:46:52.011Z,5.40
2023-04-19T20:49:19.356Z,3.30
2023-04-19T20:51:48.408Z,4.88
2023-04-19T20:54:15.736Z,6.30
2023-04-19T20:56:43.085Z,5.07
2023-04-19T20:59:10.529Z,5.55
2023-04-19T21:01:37.980Z,5.05
2023-04-19T21:04:05.478Z,4.10
2023-04-19T21:06:32.917Z,5.97
2023-04-19T21:09:00.162Z,6.45
2023-04-19T21:11:27.458Z,4.53
2023-04-19T21:13:55.055Z,4.35
2023-04-19T21:16:22.759Z,5.80
2023-04-19T21:18:50.096Z,4.80
2023-04-19T21:21:17.458Z,6.72
2023-04-19T21:23:44.661Z,4.20
2023-04-19T21:26:12.091Z,4.20
2023-04-19T21:28:39.379Z,7.57
2023-04-19T21:31:07.008Z,4.05
2023-04-19T21:33:34.374Z,4.68
2023-04-19T21:36:01.923Z,3.60
2023-04-19T21:38:29.274Z,3.63
2023-04-19T21:40:56.782Z,3.97
2023-04-19T21:43:24.085Z,4.55
2023-04-19T21:45:51.581Z,3.97
2023-04-19T21:48:18.852Z,6.38
2023-04-19T21:50:46.226Z,10.32
2023-04-19T21:53:13.432Z,4.78
2023-04-19T21:55:40.673Z,5.88
2023-04-19T21:58:07.834Z,4.25
2023-04-19T22:00:35.172Z,4.10
2023-04-19T22:03:02.669Z,8.40
2023-04-19T22:05:30.015Z,7.05
2023-04-19T22:07:57.623Z,4.53
2023-04-19T22:10:25.734Z,6.20
2023-04-19T22:12:58.719Z,4.53
2023-04-19T22:15:27.874Z,6.03
2023-04-19T22:17:57.192Z,5.00
2023-04-19T22:20:25.913Z,5.18
2023-04-19T22:22:53.177Z,5.68
2023-04-19T22:25:20.521Z,4.95
2023-04-19T22:27:48.949Z,7.47
2023-04-19T22:30:16.473Z,6.72
2023-04-19T22:32:43.971Z,7.70
2023-04-19T22:35:11.325Z,6.03
2023-04-19T22:37:38.574Z,8.10
2023-04-19T22:40:06.796Z,4.90
2023-04-19T22:42:34.123Z,7.13
2023-04-19T22:45:01.369Z,7.28
2023-04-19T22:47:28.674Z,4.97
2023-04-19T22:49:56.016Z,3.80
2023-04-19T22:52:23.660Z,5.00
2023-04-19T22:54:50.902Z,5.20
2023-04-19T22:57:18.233Z,8.75
2023-04-19T22:59:45.654Z,5.35
2023-04-19T23:02:12.939Z,4.10
2023-04-19T23:04:40.877Z,5.32
2023-04-19T23:07:08.204Z,4.97
2023-04-19T23:09:39.001Z,8.48
2023-04-19T23:12:08.330Z,3.60
2023-04-19T23:14:35.718Z,7.30
2023-04-19T23:17:03.043Z,9.30
2023-04-19T23:19:30.472Z,4.03
2023-04-19T23:21:57.722Z,6.70
2023-04-19T23:24:25.526Z,5.13
2023-04-19T23:26:53.033Z,6.53
2023-04-19T23:29:20.579Z,10.15
2023-04-19T23:31:48.115Z,4.82
2023-04-19T23:34:16.566Z,5.53
2023-04-19T23:36:43.806Z,5.82
2023-04-19T23:39:11.022Z,4.60
2023-04-19T23:41:38.301Z,4.80
2023-04-19T23:44:05.890Z,9.10
2023-04-19T23:46:33.508Z,5.15
2023-04-19T23:49:00.962Z,8.57
2023-04-19T23:51:28.131Z,15.57
2023-04-19T23:53:55.411Z,5.22
2023-04-19T23:56:22.723Z,6.03
2023-04-19T23:58:50.003Z,5.10
